sensor_id;sensor_type;location;lat;lon;timestamp;P1;durP1;ratioP1;P2;durP2;ratioP2
52380;SDS011;38310;52.796;6.942;2023-08-01T00:01:36;11.85;;;7.63;;
52380;SDS011;38310;52.796;6.942;2023-08-01T00:04:02;13.45;;;8.43;;
52380;SDS011;38310;52.796;6.942;2023-08-01T00:06:27;14.70;;;8.52;;
52380;SDS011;38310;52.796;6.942;2023-08-01T00:08:56;14.40;;;8.23;;
52380;SDS011;38310;52.796;6.942;2023-08-01T00:11:22;15.02;;;8.73;;
52380;SDS011;38310;52.796;6.942;2023-08-01T00:13:47;14.40;;;8.13;;
52380;SDS011;38310;52.796;6.942;2023-08-01T00:16:13;14.00;;;8.43;;
52380;SDS011;38310;52.796;6.942;2023-08-01T00:18:39;14.70;;;9.05;;
52380;SDS011;38310;52.796;6.942;2023-08-01T00:21:05;14.13;;;8.70;;
52380;SDS011;38310;52.796;6.942;2023-08-01T00:23:34;13.75;;;8.40;;
52380;SDS011;38310;52.796;6.942;2023-08-01T00:26:00;16.10;;;9.07;;
52380;SDS011;38310;52.796;6.942;2023-08-01T00:28:26;16.58;;;9.43;;
52380;SDS011;38310;52.796;6.942;2023-08-01T00:31:01;11.98;;;8.65;;
52380;SDS011;38310;52.796;6.942;2023-08-01T00:33:30;13.88;;;9.32;;
52380;SDS011;38310;52.796;6.942;2023-08-01T00:35:56;16.58;;;9.68;;
52380;SDS011;38310;52.796;6.942;2023-08-01T00:38:22;13.23;;;9.02;;
52380;SDS011;38310;52.796;6.942;2023-08-01T00:40:47;13.57;;;9.25;;
52380;SDS011;38310;52.796;6.942;2023-08-01T00:43:13;13.27;;;10.35;;
52380;SDS011;38310;52.796;6.942;2023-08-01T00:45:39;16.70;;;10.55;;
52380;SDS011;38310;52.796;6.942;2023-08-01T00:48:04;13.98;;;10.50;;
52380;SDS011;38310;52.796;6.942;2023-08-01T00:50:31;15.68;;;10.68;;
52380;SDS011;38310;52.796;6.942;2023-08-01T00:52:56;17.15;;;11.15;;
52380;SDS011;38310;52.796;6.942;2023-08-01T00:55:24;18.52;;;11.77;;
52380;SDS011;38310;52.796;6.942;2023-08-01T00:57:52;19.42;;;11.95;;
52380;SDS011;38310;52.796;6.942;2023-08-01T01:00:18;18.30;;;11.50;;
52380;SDS011;38310;52.796;6.942;2023-08-01T01:02:44;17.30;;;11.50;;
52380;SDS011;38310;52.796;6.942;2023-08-01T01:05:10;16.45;;;11.60;;
52380;SDS011;38310;52.796;6.942;2023-08-01T01:07:37;15.20;;;11.23;;
52380;SDS011;38310;52.796;6.942;2023-08-01T01:10:03;13.55;;;10.43;;
52380;SDS011;38310;52.796;6.942;2023-08-01T01:12:29;13.85;;;10.07;;
52380;SDS011;38310;52.796;6.942;2023-08-01T01:14:55;16.13;;;10.98;;
52380;SDS011;38310;52.796;6.942;2023-08-01T01:17:21;15.10;;;10.07;;
52380;SDS011;38310;52.796;6.942;2023-08-01T01:19:46;17.80;;;10.13;;
52380;SDS011;38310;52.796;6.942;2023-08-01T01:22:12;12.65;;;9.63;;
52380;SDS011;38310;52.796;6.942;2023-08-01T01:24:39;20.25;;;10.02;;
52380;SDS011;38310;52.796;6.942;2023-08-01T01:27:06;11.48;;;9.07;;
52380;SDS011;38310;52.796;6.942;2023-08-01T01:29:33;15.05;;;9.70;;
52380;SDS011;38310;52.796;6.942;2023-08-01T01:32:00;16.95;;;10.38;;
52380;SDS011;38310;52.796;6.942;2023-08-01T01:34:27;16.27;;;9.60;;
52380;SDS011;38310;52.796;6.942;2023-08-01T01:36:53;12.05;;;8.85;;
52380;SDS011;38310;52.796;6.942;2023-08-01T01:39:19;12.80;;;9.45;;
52380;SDS011;38310;52.796;6.942;2023-08-01T01:41:45;14.25;;;9.57;;
52380;SDS011;38310;52.796;6.942;2023-08-01T01:44:11;14.73;;;9.75;;
52380;SDS011;38310;52.796;6.942;2023-08-01T01:46:37;14.60;;;9.25;;
52380;SDS011;38310;52.796;6.942;2023-08-01T01:49:03;15.15;;;9.48;;
52380;SDS011;38310;52.796;6.942;2023-08-01T01:51:29;18.70;;;10.35;;
52380;SDS011;38310;52.796;6.942;2023-08-01T01:53:55;16.75;;;9.52;;
52380;SDS011;38310;52.796;6.942;2023-08-01T01:56:21;17.38;;;10.85;;
52380;SDS011;38310;52.796;6.942;2023-08-01T01:58:46;16.30;;;9.93;;
52380;SDS011;38310;52.796;6.942;2023-08-01T02:01:12;15.23;;;10.45;;
52380;SDS011;38310;52.796;6.942;2023-08-01T02:03:38;17.00;;;11.02;;
52380;SDS011;38310;52.796;6.942;2023-08-01T02:06:04;17.98;;;11.02;;
52380;SDS011;38310;52.796;6.942;2023-08-01T02:08:30;17.83;;;11.82;;
52380;SDS011;38310;52.796;6.942;2023-08-01T02:10:55;16.88;;;11.75;;
52380;SDS011;38310;52.796;6.942;2023-08-01T02:13:26;14.82;;;10.45;;
52380;SDS011;38310;52.796;6.942;2023-08-01T02:15:54;20.23;;;13.02;;
52380;SDS011;38310;52.796;6.942;2023-08-01T02:18:20;21.23;;;11.77;;
52380;SDS011;38310;52.796;6.942;2023-08-01T02:20:46;14.35;;;10.75;;
52380;SDS011;38310;52.796;6.942;2023-08-01T02:23:12;16.75;;;11.48;;
52380;SDS011;38310;52.796;6.942;2023-08-01T02:25:38;20.25;;;12.23;;
52380;SDS011;38310;52.796;6.942;2023-08-01T02:28:07;17.00;;;9.88;;
52380;SDS011;38310;52.796;6.942;2023-08-01T02:30:34;18.80;;;10.82;;
52380;SDS011;38310;52.796;6.942;2023-08-01T02:33:00;19.83;;;9.93;;
52380;SDS011;38310;52.796;6.942;2023-08-01T02:35:26;15.60;;;10.90;;
52380;SDS011;38310;52.796;6.942;2023-08-01T02:37:53;16.65;;;11.48;;
52380;SDS011;38310;52.796;6.942;2023-08-01T02:40:19;17.67;;;10.18;;
52380;SDS011;38310;52.796;6.942;2023-08-01T02:42:45;16.75;;;8.70;;
52380;SDS011;38310;52.796;6.942;2023-08-01T02:45:11;15.13;;;10.23;;
52380;SDS011;38310;52.796;6.942;2023-08-01T02:47:36;16.48;;;10.45;;
52380;SDS011;38310;52.796;6.942;2023-08-01T02:50:02;17.65;;;11.40;;
52380;SDS011;38310;52.796;6.942;2023-08-01T02:52:28;16.52;;;10.77;;
52380;SDS011;38310;52.796;6.942;2023-08-01T02:54:54;15.18;;;10.07;;
52380;SDS011;38310;52.796;6.942;2023-08-01T02:57:20;16.20;;;10.38;;
52380;SDS011;38310;52.796;6.942;2023-08-01T02:59:45;14.05;;;9.40;;
52380;SDS011;38310;52.796;6.942;2023-08-01T03:02:12;13.80;;;9.93;;
52380;SDS011;38310;52.796;6.942;2023-08-01T03:04:37;15.38;;;10.15;;
52380;SDS011;38310;52.796;6.942;2023-08-01T03:07:03;18.65;;;10.82;;
52380;SDS011;38310;52.796;6.942;2023-08-01T03:09:29;16.77;;;10.05;;
52380;SDS011;38310;52.796;6.942;2023-08-01T03:11:54;17.95;;;10.60;;
52380;SDS011;38310;52.796;6.942;2023-08-01T03:14:20;14.63;;;9.80;;
52380;SDS011;38310;52.796;6.942;2023-08-01T03:16:52;16.23;;;9.27;;
52380;SDS011;38310;52.796;6.942;2023-08-01T03:19:18;16.73;;;9.73;;
52380;SDS011;38310;52.796;6.942;2023-08-01T03:21:43;17.02;;;9.48;;
52380;SDS011;38310;52.796;6.942;2023-08-01T03:24:09;15.93;;;9.82;;
52380;SDS011;38310;52.796;6.942;2023-08-01T03:26:35;17.92;;;8.80;;
52380;SDS011;38310;52.796;6.942;2023-08-01T03:29:01;19.60;;;9.68;;
52380;SDS011;38310;52.796;6.942;2023-08-01T03:31:27;14.02;;;9.00;;
52380;SDS011;38310;52.796;6.942;2023-08-01T03:33:53;15.32;;;9.50;;
52380;SDS011;38310;52.796;6.942;2023-08-01T03:36:19;13.68;;;8.75;;
52380;SDS011;38310;52.796;6.942;2023-08-01T03:38:45;15.38;;;8.32;;
52380;SDS011;38310;52.796;6.942;2023-08-01T03:41:11;17.42;;;9.07;;
52380;SDS011;38310;52.796;6.942;2023-08-01T03:43:37;14.55;;;8.20;;
52380;SDS011;38310;52.796;6.942;2023-08-01T03:46:03;12.48;;;7.80;;
52380;SDS011;38310;52.796;6.942;2023-08-01T03:48:29;15.65;;;9.57;;
52380;SDS011;38310;52.796;6.942;2023-08-01T03:50:54;14.43;;;8.63;;
52380;SDS011;38310;52.796;6.942;2023-08-01T03:53:20;13.45;;;7.55;;
52380;SDS011;38310;52.796;6.942;2023-08-01T03:55:46;16.02;;;8.27;;
52380;SDS011;38310;52.796;6.942;2023-08-01T03:58:16;18.92;;;8.38;;
52380;SDS011;38310;52.796;6.942;2023-08-01T04:00:42;14.35;;;8.18;;
52380;SDS011;38310;52.796;6.942;2023-08-01T04:03:08;15.23;;;7.40;;
52380;SDS011;38310;52.796;6.942;2023-08-01T04:05:34;13.68;;;8.23;;
52380;SDS011;38310;52.796;6.942;2023-08-01T04:07:59;15.23;;;7.65;;
52380;SDS011;38310;52.796;6.942;2023-08-01T04:10:25;14.20;;;7.70;;
52380;SDS011;38310;52.796;6.942;2023-08-01T04:12:51;14.15;;;7.57;;
52380;SDS011;38310;52.796;6.942;2023-08-01T04:15:17;16.27;;;7.47;;
52380;SDS011;38310;52.796;6.942;2023-08-01T04:17:42;10.02;;;5.90;;
52380;SDS011;38310;52.796;6.942;2023-08-01T04:20:08;13.30;;;5.63;;
52380;SDS011;38310;52.796;6.942;2023-08-01T04:22:36;9.13;;;5.13;;
52380;SDS011;38310;52.796;6.942;2023-08-01T04:25:01;9.82;;;5.63;;
52380;SDS011;38310;52.796;6.942;2023-08-01T04:27:28;11.35;;;5.85;;
52380;SDS011;38310;52.796;6.942;2023-08-01T04:29:55;7.85;;;4.93;;
52380;SDS011;38310;52.796;6.942;2023-08-01T04:32:20;7.97;;;3.78;;
52380;SDS011;38310;52.796;6.942;2023-08-01T04:34:46;3.78;;;2.60;;
52380;SDS011;38310;52.796;6.942;2023-08-01T04:37:12;7.28;;;2.42;;
52380;SDS011;38310;52.796;6.942;2023-08-01T04:39:38;5.90;;;2.20;;
52380;SDS011;38310;52.796;6.942;2023-08-01T04:42:04;3.90;;;1.80;;
52380;SDS011;38310;52.796;6.942;2023-08-01T04:44:30;4.78;;;1.90;;
52380;SDS011;38310;52.796;6.942;2023-08-01T04:46:56;3.72;;;2.08;;
52380;SDS011;38310;52.796;6.942;2023-08-01T04:49:22;2.85;;;1.42;;
52380;SDS011;38310;52.796;6.942;2023-08-01T04:51:49;3.00;;;1.70;;
52380;SDS011;38310;52.796;6.942;2023-08-01T04:54:15;5.55;;;1.98;;
52380;SDS011;38310;52.796;6.942;2023-08-01T04:56:41;3.72;;;1.92;;
52380;SDS011;38310;52.796;6.942;2023-08-01T04:59:07;6.35;;;2.15;;
52380;SDS011;38310;52.796;6.942;2023-08-01T05:01:33;5.75;;;2.10;;
52380;SDS011;38310;52.796;6.942;2023-08-01T05:03:59;5.00;;;1.90;;
52380;SDS011;38310;52.796;6.942;2023-08-01T05:06:25;4.47;;;2.10;;
52380;SDS011;38310;52.796;6.942;2023-08-01T05:08:50;4.18;;;2.50;;
52380;SDS011;38310;52.796;6.942;2023-08-01T05:11:16;3.65;;;2.03;;
52380;SDS011;38310;52.796;6.942;2023-08-01T05:13:42;4.70;;;2.30;;
52380;SDS011;38310;52.796;6.942;2023-08-01T05:16:08;5.45;;;2.10;;
52380;SDS011;38310;52.796;6.942;2023-08-01T05:18:33;3.97;;;2.17;;
52380;SDS011;38310;52.796;6.942;2023-08-01T05:20:59;4.88;;;2.22;;
52380;SDS011;38310;52.796;6.942;2023-08-01T05:23:25;6.25;;;2.00;;
52380;SDS011;38310;52.796;6.942;2023-08-01T05:25:51;7.15;;;3.00;;
52380;SDS011;38310;52.796;6.942;2023-08-01T05:28:16;5.05;;;2.67;;
52380;SDS011;38310;52.796;6.942;2023-08-01T05:30:42;6.47;;;2.58;;
52380;SDS011;38310;52.796;6.942;2023-08-01T05:33:08;6.07;;;3.10;;
52380;SDS011;38310;52.796;6.942;2023-08-01T05:35:33;5.97;;;3.13;;
52380;SDS011;38310;52.796;6.942;2023-08-01T05:37:59;7.00;;;2.90;;
52380;SDS011;38310;52.796;6.942;2023-08-01T05:40:25;6.10;;;3.28;;
52380;SDS011;38310;52.796;6.942;2023-08-01T05:42:51;9.20;;;3.00;;
52380;SDS011;38310;52.796;6.942;2023-08-01T05:45:16;5.70;;;3.33;;
52380;SDS011;38310;52.796;6.942;2023-08-01T05:47:42;7.25;;;3.30;;
52380;SDS011;38310;52.796;6.942;2023-08-01T05:50:09;5.53;;;2.78;;
52380;SDS011;38310;52.796;6.942;2023-08-01T05:52:36;5.18;;;3.33;;
52380;SDS011;38310;52.796;6.942;2023-08-01T05:55:02;5.95;;;3.40;;
52380;SDS011;38310;52.796;6.942;2023-08-01T05:57:28;5.65;;;3.33;;
52380;SDS011;38310;52.796;6.942;2023-08-01T05:59:54;7.13;;;3.53;;
52380;SDS011;38310;52.796;6.942;2023-08-01T06:02:20;7.00;;;3.50;;
52380;SDS011;38310;52.796;6.942;2023-08-01T06:04:46;5.32;;;2.90;;
52380;SDS011;38310;52.796;6.942;2023-08-01T06:07:12;6.07;;;3.35;;
52380;SDS011;38310;52.796;6.942;2023-08-01T06:09:37;7.05;;;3.35;;
52380;SDS011;38310;52.796;6.942;2023-08-01T06:12:03;6.97;;;3.70;;
52380;SDS011;38310;52.796;6.942;2023-08-01T06:14:29;7.63;;;3.33;;
52380;SDS011;38310;52.796;6.942;2023-08-01T06:16:55;7.78;;;3.47;;
52380;SDS011;38310;52.796;6.942;2023-08-01T06:19:21;7.70;;;3.58;;
52380;SDS011;38310;52.796;6.942;2023-08-01T06:21:53;6.28;;;3.22;;
52380;SDS011;38310;52.796;6.942;2023-08-01T06:24:21;6.05;;;3.22;;
52380;SDS011;38310;52.796;6.942;2023-08-01T06:26:47;6.90;;;3.00;;
52380;SDS011;38310;52.796;6.942;2023-08-01T06:29:12;3.97;;;2.42;;
52380;SDS011;38310;52.796;6.942;2023-08-01T06:31:38;11.13;;;2.63;;
52380;SDS011;38310;52.796;6.942;2023-08-01T06:34:04;6.10;;;2.40;;
52380;SDS011;38310;52.796;6.942;2023-08-01T06:36:29;5.00;;;2.28;;
52380;SDS011;38310;52.796;6.942;2023-08-01T06:38:57;4.50;;;2.17;;
52380;SDS011;38310;52.796;6.942;2023-08-01T06:41:23;4.45;;;2.17;;
52380;SDS011;38310;52.796;6.942;2023-08-01T06:43:48;4.13;;;2.17;;
52380;SDS011;38310;52.796;6.942;2023-08-01T06:46:14;7.53;;;2.40;;
52380;SDS011;38310;52.796;6.942;2023-08-01T06:48:40;4.60;;;2.60;;
52380;SDS011;38310;52.796;6.942;2023-08-01T06:51:05;5.47;;;3.20;;
52380;SDS011;38310;52.796;6.942;2023-08-01T06:53:31;5.85;;;3.28;;
52380;SDS011;38310;52.796;6.942;2023-08-01T06:55:57;6.10;;;3.38;;
52380;SDS011;38310;52.796;6.942;2023-08-01T06:58:23;6.47;;;4.03;;
52380;SDS011;38310;52.796;6.942;2023-08-01T07:00:48;8.73;;;4.30;;
52380;SDS011;38310;52.796;6.942;2023-08-01T07:03:14;8.15;;;4.30;;
52380;SDS011;38310;52.796;6.942;2023-08-01T07:05:40;7.00;;;4.85;;
52380;SDS011;38310;52.796;6.942;2023-08-01T07:08:06;6.20;;;3.75;;
52380;SDS011;38310;52.796;6.942;2023-08-01T07:10:38;7.68;;;3.92;;
52380;SDS011;38310;52.796;6.942;2023-08-01T07:13:03;7.65;;;3.83;;
52380;SDS011;38310;52.796;6.942;2023-08-01T07:15:30;8.77;;;3.95;;
52380;SDS011;38310;52.796;6.942;2023-08-01T07:17:56;6.30;;;3.63;;
52380;SDS011;38310;52.796;6.942;2023-08-01T07:20:22;9.25;;;3.30;;
52380;SDS011;38310;52.796;6.942;2023-08-01T07:22:48;4.88;;;3.00;;
52380;SDS011;38310;52.796;6.942;2023-08-01T07:25:13;5.88;;;2.53;;
52380;SDS011;38310;52.796;6.942;2023-08-01T07:27:41;4.43;;;3.05;;
52380;SDS011;38310;52.796;6.942;2023-08-01T07:30:13;5.30;;;3.20;;
52380;SDS011;38310;52.796;6.942;2023-08-01T07:32:38;5.93;;;2.95;;
52380;SDS011;38310;52.796;6.942;2023-08-01T07:35:05;7.05;;;3.17;;
52380;SDS011;38310;52.796;6.942;2023-08-01T07:37:32;5.20;;;2.35;;
52380;SDS011;38310;52.796;6.942;2023-08-01T07:39:58;4.75;;;2.42;;
52380;SDS011;38310;52.796;6.942;2023-08-01T07:42:26;6.22;;;2.88;;
52380;SDS011;38310;52.796;6.942;2023-08-01T07:45:01;5.35;;;2.72;;
52380;SDS011;38310;52.796;6.942;2023-08-01T07:47:27;8.13;;;2.78;;
52380;SDS011;38310;52.796;6.942;2023-08-01T07:49:53;7.13;;;3.42;;
52380;SDS011;38310;52.796;6.942;2023-08-01T07:52:19;5.60;;;2.92;;
52380;SDS011;38310;52.796;6.942;2023-08-01T07:54:45;5.95;;;3.00;;
52380;SDS011;38310;52.796;6.942;2023-08-01T07:57:10;5.07;;;2.85;;
52380;SDS011;38310;52.796;6.942;2023-08-01T07:59:36;5.50;;;3.05;;
52380;SDS011;38310;52.796;6.942;2023-08-01T08:02:02;4.60;;;2.70;;
52380;SDS011;38310;52.796;6.942;2023-08-01T08:04:28;5.90;;;2.45;;
52380;SDS011;38310;52.796;6.942;2023-08-01T08:06:53;4.97;;;2.50;;
52380;SDS011;38310;52.796;6.942;2023-08-01T08:09:20;6.90;;;3.13;;
52380;SDS011;38310;52.796;6.942;2023-08-01T08:11:47;5.45;;;2.58;;
52380;SDS011;38310;52.796;6.942;2023-08-01T08:14:13;6.10;;;2.60;;
52380;SDS011;38310;52.796;6.942;2023-08-01T08:16:40;6.35;;;2.85;;
52380;SDS011;38310;52.796;6.942;2023-08-01T08:19:06;6.20;;;2.67;;
52380;SDS011;38310;52.796;6.942;2023-08-01T08:21:32;5.85;;;2.47;;
52380;SDS011;38310;52.796;6.942;2023-08-01T08:23:58;6.28;;;2.83;;
52380;SDS011;38310;52.796;6.942;2023-08-01T08:26:24;6.65;;;2.70;;
52380;SDS011;38310;52.796;6.942;2023-08-01T08:28:50;5.85;;;2.58;;
52380;SDS011;38310;52.796;6.942;2023-08-01T08:31:17;4.75;;;2.50;;
52380;SDS011;38310;52.796;6.942;2023-08-01T08:33:43;6.30;;;2.97;;
52380;SDS011;38310;52.796;6.942;2023-08-01T08:36:08;5.65;;;2.67;;
52380;SDS011;38310;52.796;6.942;2023-08-01T08:38:35;6.03;;;2.78;;
52380;SDS011;38310;52.796;6.942;2023-08-01T08:41:05;7.43;;;2.85;;
52380;SDS011;38310;52.796;6.942;2023-08-01T08:43:35;7.15;;;2.90;;
52380;SDS011;38310;52.796;6.942;2023-08-01T08:46:02;6.63;;;3.20;;
52380;SDS011;38310;52.796;6.942;2023-08-01T08:48:29;8.43;;;2.95;;
52380;SDS011;38310;52.796;6.942;2023-08-01T08:51:00;6.55;;;3.60;;
52380;SDS011;38310;52.796;6.942;2023-08-01T08:53:26;7.20;;;3.30;;
52380;SDS011;38310;52.796;6.942;2023-08-01T08:55:52;5.88;;;2.90;;
52380;SDS011;38310;52.796;6.942;2023-08-01T08:58:18;7.63;;;3.08;;
52380;SDS011;38310;52.796;6.942;2023-08-01T09:00:45;6.05;;;2.90;;
52380;SDS011;38310;52.796;6.942;2023-08-01T09:03:11;5.93;;;3.10;;
52380;SDS011;38310;52.796;6.942;2023-08-01T09:05:44;5.10;;;2.70;;
52380;SDS011;38310;52.796;6.942;2023-08-01T09:08:18;7.07;;;3.10;;
52380;SDS011;38310;52.796;6.942;2023-08-01T09:10:46;6.68;;;3.50;;
52380;SDS011;38310;52.796;6.942;2023-08-01T09:13:12;9.77;;;4.90;;
52380;SDS011;38310;52.796;6.942;2023-08-01T09:15:39;6.88;;;3.70;;
52380;SDS011;38310;52.796;6.942;2023-08-01T09:18:07;6.90;;;3.28;;
52380;SDS011;38310;52.796;6.942;2023-08-01T09:21:07;9.13;;;3.00;;
52380;SDS011;38310;52.796;6.942;2023-08-01T09:23:29;8.73;;;3.45;;
52380;SDS011;38310;52.796;6.942;2023-08-01T09:25:55;8.95;;;3.83;;
52380;SDS011;38310;52.796;6.942;2023-08-01T09:28:22;10.65;;;3.70;;
52380;SDS011;38310;52.796;6.942;2023-08-01T09:30:54;11.23;;;4.22;;
52380;SDS011;38310;52.796;6.942;2023-08-01T09:33:21;7.72;;;4.00;;
52380;SDS011;38310;52.796;6.942;2023-08-01T09:35:49;7.55;;;3.97;;
52380;SDS011;38310;52.796;6.942;2023-08-01T09:38:15;7.55;;;4.05;;
52380;SDS011;38310;52.796;6.942;2023-08-01T09:40:42;8.73;;;4.30;;
52380;SDS011;38310;52.796;6.942;2023-08-01T09:43:12;6.85;;;3.78;;
52380;SDS011;38310;52.796;6.942;2023-08-01T09:45:49;10.30;;;3.78;;
52380;SDS011;38310;52.796;6.942;2023-08-01T09:48:25;8.45;;;3.92;;
52380;SDS011;38310;52.796;6.942;2023-08-01T09:53:37;5.50;;;3.03;;
52380;SDS011;38310;52.796;6.942;2023-08-01T09:56:14;5.35;;;3.30;;
52380;SDS011;38310;52.796;6.942;2023-08-01T09:58:43;7.45;;;3.10;;
52380;SDS011;38310;52.796;6.942;2023-08-01T10:01:10;3.50;;;2.15;;
52380;SDS011;38310;52.796;6.942;2023-08-01T10:03:37;5.90;;;2.92;;
52380;SDS011;38310;52.796;6.942;2023-08-01T10:06:05;6.40;;;2.85;;
52380;SDS011;38310;52.796;6.942;2023-08-01T10:08:31;5.18;;;2.65;;
52380;SDS011;38310;52.796;6.942;2023-08-01T10:10:58;6.50;;;2.42;;
52380;SDS011;38310;52.796;6.942;2023-08-01T10:13:25;6.82;;;2.95;;
52380;SDS011;38310;52.796;6.942;2023-08-01T10:15:53;6.53;;;3.10;;
52380;SDS011;38310;52.796;6.942;2023-08-01T10:18:20;6.47;;;3.38;;
52380;SDS011;38310;52.796;6.942;2023-08-01T10:20:47;7.43;;;3.22;;
52380;SDS011;38310;52.796;6.942;2023-08-01T10:23:13;5.00;;;2.75;;
52380;SDS011;38310;52.796;6.942;2023-08-01T10:25:40;4.82;;;3.05;;
52380;SDS011;38310;52.796;6.942;2023-08-01T10:28:06;7.53;;;2.67;;
52380;SDS011;38310;52.796;6.942;2023-08-01T10:30:32;8.27;;;3.10;;
52380;SDS011;38310;52.796;6.942;2023-08-01T10:32:58;7.18;;;2.70;;
52380;SDS011;38310;52.796;6.942;2023-08-01T10:35:38;5.20;;;2.67;;
52380;SDS011;38310;52.796;6.942;2023-08-01T10:38:05;4.10;;;2.25;;
52380;SDS011;38310;52.796;6.942;2023-08-01T10:40:38;4.68;;;2.20;;
52380;SDS011;38310;52.796;6.942;2023-08-01T10:43:05;6.28;;;2.58;;
52380;SDS011;38310;52.796;6.942;2023-08-01T10:45:31;5.18;;;2.38;;
52380;SDS011;38310;52.796;6.942;2023-08-01T10:48:07;3.75;;;2.15;;
52380;SDS011;38310;52.796;6.942;2023-08-01T10:50:36;7.07;;;2.00;;
52380;SDS011;38310;52.796;6.942;2023-08-01T10:53:03;5.35;;;2.10;;
52380;SDS011;38310;52.796;6.942;2023-08-01T10:55:38;4.53;;;2.28;;
52380;SDS011;38310;52.796;6.942;2023-08-01T10:58:05;3.83;;;2.17;;
52380;SDS011;38310;52.796;6.942;2023-08-01T11:00:31;7.30;;;2.50;;
52380;SDS011;38310;52.796;6.942;2023-08-01T11:02:57;4.57;;;2.63;;
52380;SDS011;38310;52.796;6.942;2023-08-01T11:05:23;4.80;;;1.90;;
52380;SDS011;38310;52.796;6.942;2023-08-01T11:07:57;4.72;;;2.45;;
52380;SDS011;38310;52.796;6.942;2023-08-01T11:10:27;4.88;;;2.15;;
52380;SDS011;38310;52.796;6.942;2023-08-01T11:12:55;4.10;;;2.40;;
52380;SDS011;38310;52.796;6.942;2023-08-01T11:15:21;4.95;;;2.10;;
52380;SDS011;38310;52.796;6.942;2023-08-01T11:17:51;4.82;;;2.17;;
52380;SDS011;38310;52.796;6.942;2023-08-01T11:20:19;5.15;;;2.40;;
52380;SDS011;38310;52.796;6.942;2023-08-01T11:25:42;8.27;;;2.85;;
52380;SDS011;38310;52.796;6.942;2023-08-01T11:28:11;6.88;;;2.38;;
52380;SDS011;38310;52.796;6.942;2023-08-01T11:30:39;6.82;;;2.40;;
52380;SDS011;38310;52.796;6.942;2023-08-01T11:33:15;4.82;;;2.38;;
52380;SDS011;38310;52.796;6.942;2023-08-01T11:35:54;4.82;;;1.90;;
52380;SDS011;38310;52.796;6.942;2023-08-01T11:38:27;4.25;;;2.20;;
52380;SDS011;38310;52.796;6.942;2023-08-01T11:40:56;6.20;;;2.00;;
52380;SDS011;38310;52.796;6.942;2023-08-01T11:43:22;4.22;;;1.90;;
52380;SDS011;38310;52.796;6.942;2023-08-01T11:45:55;3.53;;;2.08;;
52380;SDS011;38310;52.796;6.942;2023-08-01T11:48:24;4.00;;;1.40;;
52380;SDS011;38310;52.796;6.942;2023-08-01T11:50:59;5.25;;;2.30;;
52380;SDS011;38310;52.796;6.942;2023-08-01T11:53:26;4.38;;;2.30;;
52380;SDS011;38310;52.796;6.942;2023-08-01T11:55:53;4.93;;;1.90;;
52380;SDS011;38310;52.796;6.942;2023-08-01T12:01:13;5.97;;;2.00;;
52380;SDS011;38310;52.796;6.942;2023-08-01T12:03:46;6.60;;;2.33;;
52380;SDS011;38310;52.796;6.942;2023-08-01T12:06:17;4.57;;;1.90;;
52380;SDS011;38310;52.796;6.942;2023-08-01T12:08:45;5.03;;;2.20;;
52380;SDS011;38310;52.796;6.942;2023-08-01T12:16:30;4.65;;;1.95;;
52380;SDS011;38310;52.796;6.942;2023-08-01T12:18:56;5.47;;;1.80;;
52380;SDS011;38310;52.796;6.942;2023-08-01T12:21:22;2.97;;;1.58;;
52380;SDS011;38310;52.796;6.942;2023-08-01T12:23:48;5.38;;;1.58;;
52380;SDS011;38310;52.796;6.942;2023-08-01T12:26:14;6.18;;;1.80;;
52380;SDS011;38310;52.796;6.942;2023-08-01T12:28:40;4.43;;;1.58;;
52380;SDS011;38310;52.796;6.942;2023-08-01T12:31:05;3.70;;;1.63;;
52380;SDS011;38310;52.796;6.942;2023-08-01T12:33:32;4.72;;;1.80;;
52380;SDS011;38310;52.796;6.942;2023-08-01T12:36:02;5.85;;;1.85;;
52380;SDS011;38310;52.796;6.942;2023-08-01T12:38:28;4.90;;;1.55;;
52380;SDS011;38310;52.796;6.942;2023-08-01T12:40:54;6.22;;;1.95;;
52380;SDS011;38310;52.796;6.942;2023-08-01T12:43:20;2.67;;;1.42;;
52380;SDS011;38310;52.796;6.942;2023-08-01T12:45:46;6.93;;;1.83;;
52380;SDS011;38310;52.796;6.942;2023-08-01T12:48:13;6.00;;;2.00;;
52380;SDS011;38310;52.796;6.942;2023-08-01T12:50:42;3.78;;;1.58;;
52380;SDS011;38310;52.796;6.942;2023-08-01T12:53:11;3.47;;;1.33;;
52380;SDS011;38310;52.796;6.942;2023-08-01T12:55:37;3.17;;;1.70;;
52380;SDS011;38310;52.796;6.942;2023-08-01T12:58:03;6.05;;;1.92;;
52380;SDS011;38310;52.796;6.942;2023-08-01T13:00:29;4.95;;;1.80;;
52380;SDS011;38310;52.796;6.942;2023-08-01T13:02:55;5.90;;;1.92;;
52380;SDS011;38310;52.796;6.942;2023-08-01T13:05:21;5.38;;;1.98;;
52380;SDS011;38310;52.796;6.942;2023-08-01T13:07:47;9.45;;;2.22;;
52380;SDS011;38310;52.796;6.942;2023-08-01T13:10:14;6.60;;;1.95;;
52380;SDS011;38310;52.796;6.942;2023-08-01T13:12:40;3.83;;;1.52;;
52380;SDS011;38310;52.796;6.942;2023-08-01T13:15:06;6.55;;;1.70;;
52380;SDS011;38310;52.796;6.942;2023-08-01T13:17:32;5.05;;;1.65;;
52380;SDS011;38310;52.796;6.942;2023-08-01T13:19:58;5.28;;;1.90;;
52380;SDS011;38310;52.796;6.942;2023-08-01T13:22:23;7.18;;;2.03;;
52380;SDS011;38310;52.796;6.942;2023-08-01T13:24:49;4.68;;;1.92;;
52380;SDS011;38310;52.796;6.942;2023-08-01T13:27:15;4.32;;;2.20;;
52380;SDS011;38310;52.796;6.942;2023-08-01T13:29:40;6.18;;;2.00;;
52380;SDS011;38310;52.796;6.942;2023-08-01T13:32:06;9.65;;;3.22;;
52380;SDS011;38310;52.796;6.942;2023-08-01T13:34:32;6.10;;;2.15;;
52380;SDS011;38310;52.796;6.942;2023-08-01T13:36:58;8.50;;;2.10;;
52380;SDS011;38310;52.796;6.942;2023-08-01T13:39:24;6.00;;;2.20;;
52380;SDS011;38310;52.796;6.942;2023-08-01T13:41:49;4.80;;;2.15;;
52380;SDS011;38310;52.796;6.942;2023-08-01T13:44:15;3.80;;;2.15;;
52380;SDS011;38310;52.796;6.942;2023-08-01T13:46:41;5.43;;;2.22;;
52380;SDS011;38310;52.796;6.942;2023-08-01T13:49:07;4.90;;;1.85;;
52380;SDS011;38310;52.796;6.942;2023-08-01T13:51:33;6.25;;;1.92;;
52380;SDS011;38310;52.796;6.942;2023-08-01T13:53:59;5.80;;;2.42;;
52380;SDS011;38310;52.796;6.942;2023-08-01T13:56:25;6.25;;;2.10;;
52380;SDS011;38310;52.796;6.942;2023-08-01T13:58:51;7.25;;;2.13;;
52380;SDS011;38310;52.796;6.942;2023-08-01T14:01:17;5.85;;;1.90;;
52380;SDS011;38310;52.796;6.942;2023-08-01T14:03:44;5.05;;;1.80;;
52380;SDS011;38310;52.796;6.942;2023-08-01T14:06:11;19.73;;;3.15;;
52380;SDS011;38310;52.796;6.942;2023-08-01T14:08:38;4.82;;;1.88;;
52380;SDS011;38310;52.796;6.942;2023-08-01T14:11:05;3.42;;;1.90;;
52380;SDS011;38310;52.796;6.942;2023-08-01T14:13:32;4.90;;;1.63;;
52380;SDS011;38310;52.796;6.942;2023-08-01T14:15:59;3.83;;;1.90;;
52380;SDS011;38310;52.796;6.942;2023-08-01T14:18:26;7.53;;;1.67;;
52380;SDS011;38310;52.796;6.942;2023-08-01T14:20:53;3.55;;;1.55;;
52380;SDS011;38310;52.796;6.942;2023-08-01T14:23:19;4.40;;;1.60;;
52380;SDS011;38310;52.796;6.942;2023-08-01T14:25:45;4.60;;;1.50;;
52380;SDS011;38310;52.796;6.942;2023-08-01T14:28:11;3.60;;;1.70;;
52380;SDS011;38310;52.796;6.942;2023-08-01T14:30:37;4.07;;;1.70;;
52380;SDS011;38310;52.796;6.942;2023-08-01T14:33:05;3.05;;;1.38;;
52380;SDS011;38310;52.796;6.942;2023-08-01T14:35:34;4.20;;;1.58;;
52380;SDS011;38310;52.796;6.942;2023-08-01T14:38:01;4.43;;;1.30;;
52380;SDS011;38310;52.796;6.942;2023-08-01T14:40:28;2.45;;;1.10;;
52380;SDS011;38310;52.796;6.942;2023-08-01T14:42:54;5.03;;;1.35;;
52380;SDS011;38310;52.796;6.942;2023-08-01T14:45:20;1.73;;;0.90;;
52380;SDS011;38310;52.796;6.942;2023-08-01T14:47:46;3.40;;;1.35;;
52380;SDS011;38310;52.796;6.942;2023-08-01T14:50:13;2.45;;;0.90;;
52380;SDS011;38310;52.796;6.942;2023-08-01T14:52:39;3.63;;;1.00;;